Wellington, Florida
Current Conditions -  °F | °C
As of 3:53 PM on Friday 28 Nov 2014 (Local Time) from KPBI Reporting Station
Scattered Clouds Scattered Clouds  
Wind Chill: 68°   Ceiling: Unl
Heat Index: 68°   Visibility: 10mi
Dew Point: 53°   Wind: 18mph
Humidity: 59%   Direction: 340°NNW
Pressure: 30.17"   Gusts: 22mph
Location:  26.64°N, 80.27°W
Report Text: KPBI 282053Z 34016G19KT 10SM SCT038 SCT250 20/12 A3017 RMK AO2 SLP215 T02000117 55006
Loading
Personal Weather Stations






























Interactive Weather Map New forecast layout! Learn more

10-Day Weather Forecast

Advertisements
Track Severe Weather on mobile